createdAt,value
2022-12-05T00:01:35.468Z,7.90
2022-12-05T00:05:40.974Z,7.90
2022-12-05T00:09:43.049Z,7.90
2022-12-05T00:13:45.368Z,7.90
2022-12-05T00:17:47.184Z,7.80
2022-12-05T00:21:48.986Z,7.90
2022-12-05T00:25:50.924Z,7.80
2022-12-05T00:29:52.732Z,7.90
2022-12-05T00:33:55.037Z,7.90
2022-12-05T00:37:56.965Z,7.90
2022-12-05T00:41:58.784Z,7.90
2022-12-05T00:46:05.129Z,7.90
2022-12-05T00:50:08.155Z,7.90
2022-12-05T00:54:15.596Z,8.00
2022-12-05T00:58:17.465Z,7.90
2022-12-05T01:02:19.269Z,8.00
2022-12-05T01:06:22.548Z,7.90
2022-12-05T01:10:24.413Z,7.90
2022-12-05T01:14:26.729Z,7.90
2022-12-05T01:18:28.658Z,7.90
2022-12-05T01:22:30.476Z,7.90
2022-12-05T01:26:32.259Z,7.90
2022-12-05T01:30:38.055Z,7.90
2022-12-05T01:34:39.907Z,7.90
2022-12-05T01:38:42.464Z,7.90
2022-12-05T01:42:44.320Z,7.90
2022-12-05T01:46:49.079Z,7.90
2022-12-05T01:50:51.149Z,8.00
2022-12-05T01:54:56.435Z,8.00
2022-12-05T01:58:58.321Z,7.90
2022-12-05T02:03:05.393Z,7.90
2022-12-05T02:07:07.275Z,8.00
2022-12-05T02:11:09.125Z,8.00
2022-12-05T02:15:45.631Z,7.90
2022-12-05T02:20:19.380Z,7.90
2022-12-05T02:25:01.190Z,7.90
2022-12-05T02:29:41.086Z,8.00
2022-12-05T02:34:15.615Z,8.00
2022-12-05T02:38:22.831Z,7.90
2022-12-05T02:42:28.775Z,7.90
2022-12-05T02:46:31.467Z,8.00
2022-12-05T02:50:37.793Z,7.90
2022-12-05T02:54:41.663Z,7.90
2022-12-05T02:58:52.206Z,7.90
2022-12-05T03:03:02.864Z,7.90
2022-12-05T03:07:15.780Z,7.90
2022-12-05T03:11:23.810Z,7.90
2022-12-05T03:15:41.783Z,7.90
2022-12-05T03:20:18.823Z,7.90
2022-12-05T03:24:20.784Z,7.90
2022-12-05T03:28:51.090Z,7.90
2022-12-05T03:33:12.410Z,7.90
2022-12-05T03:37:22.134Z,7.90
2022-12-05T03:41:31.227Z,7.90
2022-12-05T03:45:39.873Z,7.80
2022-12-05T03:49:45.720Z,7.90
2022-12-05T03:53:58.304Z,7.80
2022-12-05T03:58:09.039Z,7.80
2022-12-05T04:02:15.357Z,7.90
2022-12-05T04:06:33.554Z,7.90
2022-12-05T04:10:48.665Z,7.90
2022-12-05T04:14:59.690Z,7.90
2022-12-05T04:19:18.334Z,7.90
2022-12-05T04:23:20.354Z,7.80
2022-12-05T04:27:35.747Z,7.90
2022-12-05T04:31:43.948Z,7.80
2022-12-05T04:36:10.206Z,7.80
2022-12-05T04:40:22.517Z,7.80
2022-12-05T04:44:28.469Z,7.90
2022-12-05T04:48:30.390Z,7.90
2022-12-05T04:52:32.766Z,7.80
2022-12-05T04:56:35.326Z,7.90
2022-12-05T05:00:57.594Z,7.80
2022-12-05T05:04:59.377Z,7.80
2022-12-05T05:09:01.166Z,7.90
2022-12-05T05:13:03.034Z,7.80
2022-12-05T05:17:05.104Z,8.00
2022-12-05T05:21:09.886Z,8.00
2022-12-05T05:25:11.738Z,7.90
2022-12-05T05:29:14.028Z,7.90
2022-12-05T05:33:15.965Z,7.90
2022-12-05T05:37:17.841Z,7.90
2022-12-05T05:41:22.349Z,7.90
2022-12-05T05:45:24.210Z,7.80
2022-12-05T05:49:26.116Z,7.80
2022-12-05T05:53:27.969Z,7.80
2022-12-05T05:57:30.563Z,7.80
2022-12-05T06:01:32.492Z,7.80
2022-12-05T06:05:34.295Z,7.80
2022-12-05T06:09:36.170Z,7.80
2022-12-05T06:13:38.093Z,7.80
2022-12-05T06:17:39.888Z,7.80
2022-12-05T06:21:41.788Z,7.80
2022-12-05T06:25:49.099Z,7.80
2022-12-05T06:29:50.949Z,7.80
2022-12-05T06:33:52.746Z,7.80
2022-12-05T06:37:54.608Z,7.80
2022-12-05T06:41:56.489Z,7.80
2022-12-05T06:45:58.361Z,7.80
2022-12-05T06:50:00.372Z,7.90
2022-12-05T06:54:02.857Z,7.80
2022-12-05T06:58:04.630Z,7.90
2022-12-05T07:02:08.456Z,8.00
2022-12-05T07:06:10.614Z,7.90
2022-12-05T07:10:12.505Z,7.90
2022-12-05T07:14:31.222Z,8.00
2022-12-05T07:18:36.617Z,8.00
2022-12-05T07:22:38.510Z,8.00
2022-12-05T07:26:40.272Z,8.00
2022-12-05T07:30:42.130Z,8.00
2022-12-05T07:34:44.056Z,7.80
2022-12-05T07:38:46.237Z,7.50
2022-12-05T07:42:53.481Z,7.50
2022-12-05T07:46:55.424Z,7.50
2022-12-05T07:51:05.148Z,7.50
2022-12-05T07:55:09.141Z,7.40
2022-12-05T07:59:14.291Z,7.40
2022-12-05T08:03:16.228Z,7.40
2022-12-05T08:07:23.150Z,7.50
2022-12-05T08:11:30.369Z,7.50
2022-12-05T08:15:36.647Z,7.60
2022-12-05T08:19:39.769Z,7.60
2022-12-05T08:23:41.758Z,7.50
2022-12-05T08:27:43.632Z,7.30
2022-12-05T08:31:48.366Z,7.30
2022-12-05T08:35:50.259Z,7.20
2022-12-05T08:39:52.038Z,7.20
2022-12-05T08:43:54.286Z,7.30
2022-12-05T08:47:56.096Z,7.40
2022-12-05T08:51:57.928Z,7.30
2022-12-05T08:56:04.005Z,7.20
2022-12-05T09:00:06.929Z,7.20
2022-12-05T09:04:08.990Z,7.30
2022-12-05T09:08:11.226Z,7.20
2022-12-05T09:12:14.879Z,7.20
2022-12-05T09:16:20.191Z,7.20
2022-12-05T09:20:22.149Z,7.30
2022-12-05T09:24:24.167Z,7.30
2022-12-05T09:28:26.031Z,7.40
2022-12-05T09:32:27.967Z,7.50
2022-12-05T09:36:30.913Z,7.60
2022-12-05T09:40:32.758Z,7.50
2022-12-05T09:45:29.145Z,7.60
2022-12-05T09:49:31.100Z,7.70
2022-12-05T09:53:38.415Z,7.80
2022-12-05T09:58:01.640Z,7.90
2022-12-05T10:02:26.486Z,8.00
2022-12-05T10:06:55.680Z,8.10
2022-12-05T10:11:04.120Z,8.10
2022-12-05T10:15:34.483Z,8.20
2022-12-05T10:19:40.072Z,8.20
2022-12-05T10:24:00.636Z,8.30
2022-12-05T10:28:06.322Z,8.30
2022-12-05T10:32:17.180Z,8.30
2022-12-05T10:36:18.940Z,8.30
2022-12-05T10:40:20.907Z,8.30
2022-12-05T10:44:23.113Z,8.30
2022-12-05T10:48:25.125Z,8.40
2022-12-05T10:52:26.907Z,8.50
2022-12-05T10:56:49.223Z,8.50
2022-12-05T11:00:58.371Z,8.50
2022-12-05T11:05:01.430Z,8.60
2022-12-05T11:09:20.310Z,8.60
2022-12-05T11:13:25.714Z,8.50
2022-12-05T11:17:46.226Z,8.60
2022-12-05T11:21:49.293Z,8.50
2022-12-05T11:25:51.379Z,8.50
2022-12-05T11:30:19.300Z,8.40
2022-12-05T11:34:23.987Z,8.50
2022-12-05T11:38:28.372Z,8.50
2022-12-05T11:42:51.851Z,8.50
2022-12-05T11:47:28.004Z,8.40
2022-12-05T11:52:06.771Z,8.30
2022-12-05T11:56:26.167Z,8.40
2022-12-05T12:00:44.932Z,8.40
2022-12-05T12:04:51.578Z,8.30
2022-12-05T12:09:18.589Z,8.30
2022-12-05T12:13:59.818Z,8.40
2022-12-05T12:18:23.265Z,8.40
2022-12-05T12:23:05.738Z,8.40
2022-12-05T12:27:46.337Z,8.30
2022-12-05T12:31:58.080Z,8.30
2022-12-05T12:36:23.288Z,8.30
2022-12-05T12:40:53.234Z,8.30
2022-12-05T12:45:38.257Z,8.40
2022-12-05T12:50:15.148Z,8.40
2022-12-05T12:55:03.393Z,8.40
2022-12-05T12:59:25.830Z,8.40
2022-12-05T13:03:45.141Z,8.40
2022-12-05T13:07:54.936Z,8.40
2022-12-05T13:11:59.539Z,8.40
2022-12-05T13:16:02.692Z,8.50
2022-12-05T13:20:05.347Z,8.50
2022-12-05T13:24:07.223Z,8.50
2022-12-05T13:28:29.895Z,8.50
2022-12-05T13:32:37.205Z,8.50
2022-12-05T13:36:58.724Z,8.60
2022-12-05T13:41:19.277Z,8.60
2022-12-05T13:45:21.309Z,8.70
2022-12-05T13:49:43.479Z,8.60
2022-12-05T13:53:48.051Z,8.50
2022-12-05T13:57:53.264Z,8.30
2022-12-05T14:01:56.423Z,8.30
2022-12-05T14:06:01.089Z,8.20
2022-12-05T14:10:03.200Z,8.20
2022-12-05T14:14:08.463Z,8.20
2022-12-05T14:18:24.917Z,8.20
2022-12-05T14:23:30.494Z,8.20
2022-12-05T14:28:04.188Z,8.20
2022-12-05T14:32:15.352Z,8.20
2022-12-05T14:36:18.896Z,8.20
2022-12-05T14:40:45.052Z,8.20
2022-12-05T14:44:50.597Z,8.10
2022-12-05T14:48:56.128Z,8.20
2022-12-05T14:53:26.734Z,8.20
2022-12-05T14:57:29.077Z,8.20
2022-12-05T15:01:51.932Z,8.10
2022-12-05T15:05:56.539Z,8.00
2022-12-05T15:10:21.603Z,7.90
2022-12-05T15:14:29.131Z,7.80
2022-12-05T15:18:40.083Z,7.70
2022-12-05T15:22:42.532Z,7.70
2022-12-05T15:26:49.494Z,7.50
2022-12-05T15:30:55.750Z,7.50
2022-12-05T15:35:05.017Z,7.60
2022-12-05T15:39:23.686Z,7.60
2022-12-05T15:43:30.782Z,7.60
2022-12-05T15:48:06.445Z,7.60
2022-12-05T15:52:58.873Z,7.50
2022-12-05T15:57:35.733Z,7.50
2022-12-05T16:02:07.801Z,7.60
2022-12-05T16:07:32.562Z,7.50
2022-12-05T16:11:45.041Z,7.40
2022-12-05T16:16:07.895Z,7.40
2022-12-05T16:20:30.185Z,7.40
2022-12-05T16:30:20.688Z,7.50
2022-12-05T16:34:35.622Z,7.50
2022-12-05T16:38:54.505Z,7.40
2022-12-05T16:43:35.917Z,7.40
2022-12-05T16:47:45.929Z,7.30
2022-12-05T16:52:01.084Z,7.30
2022-12-05T16:56:04.399Z,7.30
2022-12-05T17:00:20.709Z,7.30
2022-12-05T17:04:26.879Z,7.30
2022-12-05T17:08:28.791Z,7.40
2022-12-05T17:12:30.683Z,7.40
2022-12-05T17:16:32.869Z,7.30
2022-12-05T17:20:41.522Z,7.30
2022-12-05T17:24:44.297Z,7.30
2022-12-05T17:28:51.814Z,7.20
2022-12-05T17:33:05.858Z,7.20
2022-12-05T17:42:31.846Z,7.20
2022-12-05T17:47:13.457Z,7.20
2022-12-05T17:55:37.324Z,7.30
2022-12-05T17:59:39.301Z,7.30
2022-12-05T18:03:41.407Z,7.30
2022-12-05T18:07:46.929Z,7.30
2022-12-05T18:11:49.005Z,7.30
2022-12-05T18:16:01.361Z,7.20
2022-12-05T18:20:15.643Z,7.20
2022-12-05T18:24:17.688Z,7.20
2022-12-05T18:28:20.760Z,7.20
2022-12-05T18:32:22.939Z,7.20
2022-12-05T18:36:24.839Z,7.20
2022-12-05T18:40:28.070Z,7.30
2022-12-05T18:44:30.827Z,7.30
2022-12-05T18:48:41.646Z,7.20
2022-12-05T18:52:45.708Z,7.20
2022-12-05T18:56:50.583Z,7.20
2022-12-05T19:01:49.076Z,7.20
2022-12-05T19:05:51.916Z,7.20
2022-12-05T19:09:58.304Z,7.20
2022-12-05T19:14:03.144Z,7.20
2022-12-05T19:18:05.193Z,7.10
2022-12-05T19:22:07.136Z,7.20
2022-12-05T19:26:09.327Z,7.10
2022-12-05T19:30:11.669Z,7.10
2022-12-05T19:34:14.032Z,7.10
2022-12-05T19:38:15.956Z,7.10
2022-12-05T19:42:20.625Z,7.20
2022-12-05T19:46:31.724Z,7.20
2022-12-05T19:50:39.511Z,7.20
2022-12-05T19:54:47.123Z,7.20
2022-12-05T19:58:52.650Z,7.20
2022-12-05T20:02:57.170Z,7.30
2022-12-05T20:07:01.916Z,7.30
2022-12-05T20:11:18.023Z,7.40
2022-12-05T20:15:20.148Z,7.40
2022-12-05T20:19:23.590Z,7.40
2022-12-05T20:23:36.742Z,7.30
2022-12-05T20:27:38.643Z,7.30
2022-12-05T20:31:42.097Z,7.30
2022-12-05T20:35:44.201Z,7.40
2022-12-05T20:39:53.480Z,7.40
2022-12-05T20:43:58.113Z,7.30
2022-12-05T20:48:04.873Z,7.30
2022-12-05T20:52:06.837Z,7.20
2022-12-05T20:56:20.183Z,7.20
2022-12-05T21:00:22.106Z,7.10
2022-12-05T21:04:24.262Z,7.10
2022-12-05T21:08:26.336Z,7.00
2022-12-05T21:12:28.215Z,7.00
2022-12-05T21:16:30.494Z,7.00
2022-12-05T21:20:35.293Z,7.00
2022-12-05T21:24:43.062Z,6.90
2022-12-05T21:28:59.284Z,6.80
2022-12-05T21:33:01.442Z,6.80
2022-12-05T21:37:03.582Z,6.90
2022-12-05T21:41:05.972Z,6.80
2022-12-05T21:45:08.706Z,6.80
2022-12-05T21:49:11.448Z,6.80
2022-12-05T21:53:13.380Z,6.90
2022-12-05T21:57:15.333Z,6.90
2022-12-05T22:01:23.319Z,6.90
2022-12-05T22:05:25.424Z,6.90
2022-12-05T22:09:27.376Z,6.80
2022-12-05T22:13:30.763Z,6.90
2022-12-05T22:17:32.837Z,6.90
2022-12-05T22:21:34.733Z,6.80
2022-12-05T22:25:36.611Z,6.80
2022-12-05T22:29:38.606Z,6.90
2022-12-05T22:33:40.579Z,6.90
2022-12-05T22:37:42.503Z,6.90
2022-12-05T22:41:44.986Z,6.90
2022-12-05T22:45:49.945Z,6.90
2022-12-05T22:49:51.879Z,6.80
2022-12-05T22:53:54.201Z,6.90
2022-12-05T22:57:56.146Z,6.90
2022-12-05T23:01:57.985Z,7.00
2022-12-05T23:05:59.884Z,6.90
2022-12-05T23:10:02.075Z,6.90
2022-12-05T23:14:05.927Z,6.80
2022-12-05T23:18:08.614Z,6.90
2022-12-05T23:22:10.570Z,6.80
2022-12-05T23:26:13.114Z,6.80
2022-12-05T23:30:15.341Z,6.80
2022-12-05T23:34:17.402Z,6.70
2022-12-05T23:38:19.267Z,6.70
2022-12-05T23:42:21.179Z,6.80
2022-12-05T23:46:25.726Z,6.70
2022-12-05T23:50:27.685Z,6.80
2022-12-05T23:54:29.619Z,6.70
2022-12-05T23:58:31.694Z,6.70
